createdAt,value
2023-04-08T00:02:01.829Z,11.52
2023-04-08T00:04:30.322Z,13.88
2023-04-08T00:06:58.512Z,16.63
2023-04-08T00:09:26.542Z,13.60
2023-04-08T00:11:54.694Z,12.40
2023-04-08T00:14:23.485Z,12.57
2023-04-08T00:16:51.608Z,12.02
2023-04-08T00:19:21.706Z,13.70
2023-04-08T00:21:49.964Z,16.42
2023-04-08T00:24:18.302Z,11.57
2023-04-08T00:26:46.909Z,11.73
2023-04-08T00:29:15.565Z,11.88
2023-04-08T00:31:44.370Z,9.32
2023-04-08T00:34:12.879Z,8.95
2023-04-08T00:36:42.522Z,8.02
2023-04-08T00:39:11.280Z,8.75
2023-04-08T00:41:39.840Z,7.13
2023-04-08T00:44:07.938Z,9.48
2023-04-08T00:46:40.043Z,9.43
2023-04-08T00:49:08.892Z,7.82
2023-04-08T00:51:37.372Z,9.45
2023-04-08T00:54:07.444Z,7.65
2023-04-08T00:56:37.402Z,8.13
2023-04-08T00:59:06.323Z,8.27
2023-04-08T01:01:44.605Z,7.82
2023-04-08T01:04:22.454Z,8.65
2023-04-08T01:06:55.881Z,7.70
2023-04-08T01:09:31.214Z,7.72
2023-04-08T01:12:03.146Z,8.05
2023-04-08T01:14:34.729Z,8.63
2023-04-08T01:17:03.832Z,7.57
2023-04-08T01:19:35.720Z,8.95
2023-04-08T01:22:13.967Z,7.25
2023-04-08T01:24:46.762Z,8.02
2023-04-08T01:27:18.212Z,7.43
2023-04-08T01:29:48.749Z,6.43
2023-04-08T01:32:17.798Z,5.28
2023-04-08T01:34:47.091Z,6.53
2023-04-08T01:37:17.251Z,6.70
2023-04-08T01:39:47.017Z,6.90
2023-04-08T01:42:17.157Z,7.60
2023-04-08T01:44:46.554Z,5.93
2023-04-08T01:47:16.109Z,5.68
2023-04-08T01:49:46.752Z,5.38
2023-04-08T01:52:18.008Z,5.32
2023-04-08T01:54:46.953Z,4.57
2023-04-08T01:57:23.769Z,4.53
2023-04-08T01:59:54.382Z,3.83
2023-04-08T02:02:26.052Z,3.97
2023-04-08T02:04:55.133Z,4.35
2023-04-08T02:07:23.876Z,5.78
2023-04-08T02:09:52.196Z,4.45
2023-04-08T02:12:21.600Z,4.43
2023-04-08T02:15:16.123Z,4.60
2023-04-08T02:17:47.560Z,4.00
2023-04-08T02:20:19.937Z,4.97
2023-04-08T02:22:51.731Z,4.45
2023-04-08T02:25:25.684Z,4.85
2023-04-08T02:27:57.337Z,4.30
2023-04-08T02:30:28.917Z,4.35
2023-04-08T02:32:59.585Z,4.28
2023-04-08T02:35:29.550Z,3.58
2023-04-08T02:37:58.273Z,3.72
2023-04-08T02:40:28.025Z,3.40
2023-04-08T02:43:00.046Z,3.83
2023-04-08T02:45:32.013Z,4.25
2023-04-08T02:48:02.487Z,4.32
2023-04-08T02:50:30.875Z,4.40
2023-04-08T02:52:59.465Z,5.15
2023-04-08T02:55:27.739Z,5.70
2023-04-08T02:57:55.987Z,4.75
2023-04-08T03:00:25.757Z,5.22
2023-04-08T03:02:54.260Z,5.40
2023-04-08T03:05:22.831Z,5.80
2023-04-08T03:07:51.181Z,5.03
2023-04-08T03:10:19.607Z,5.53
2023-04-08T03:12:48.005Z,5.28
2023-04-08T03:15:16.526Z,6.63
2023-04-08T03:17:46.256Z,4.82
2023-04-08T03:20:14.696Z,5.25
2023-04-08T03:22:43.413Z,5.82
2023-04-08T03:25:12.140Z,5.32
2023-04-08T03:27:41.001Z,4.97
2023-04-08T03:30:10.121Z,4.72
2023-04-08T03:32:38.558Z,5.45
2023-04-08T03:35:10.207Z,5.28
2023-04-08T03:37:38.356Z,4.00
2023-04-08T03:40:08.433Z,3.65
2023-04-08T03:42:36.746Z,5.68
2023-04-08T03:45:06.909Z,3.17
2023-04-08T03:47:35.755Z,3.38
2023-04-08T03:50:04.537Z,3.05
2023-04-08T03:52:34.254Z,3.60
2023-04-08T03:55:02.232Z,3.58
2023-04-08T03:57:30.734Z,3.67
2023-04-08T03:59:59.500Z,2.55
2023-04-08T04:02:28.002Z,4.30
2023-04-08T04:04:56.725Z,3.85
2023-04-08T04:07:24.859Z,4.95
2023-04-08T04:09:57.009Z,3.55
2023-04-08T04:12:25.204Z,3.10
2023-04-08T04:14:53.551Z,4.53
2023-04-08T04:17:22.128Z,4.10
2023-04-08T04:19:50.545Z,4.18
2023-04-08T04:22:18.829Z,4.53
2023-04-08T04:24:49.309Z,2.83
2023-04-08T04:27:19.098Z,4.30
2023-04-08T04:29:47.160Z,3.33
2023-04-08T04:32:15.658Z,3.72
2023-04-08T04:34:44.629Z,3.83
2023-04-08T04:37:13.794Z,4.28
2023-04-08T04:39:42.377Z,4.20
2023-04-08T04:42:10.505Z,4.10
2023-04-08T04:44:40.270Z,4.68
2023-04-08T04:47:08.475Z,4.25
2023-04-08T04:49:37.041Z,4.78
2023-04-08T04:52:06.980Z,5.18
2023-04-08T04:54:35.233Z,4.97
2023-04-08T04:57:03.316Z,5.93
2023-04-08T04:59:31.347Z,4.55
2023-04-08T05:02:01.413Z,5.13
2023-04-08T05:04:29.789Z,5.30
2023-04-08T05:07:00.674Z,6.30
2023-04-08T05:09:30.205Z,5.05
2023-04-08T05:11:58.541Z,6.72
2023-04-08T05:14:26.670Z,5.25
2023-04-08T05:16:55.175Z,6.35
2023-04-08T05:19:25.047Z,6.10
2023-04-08T05:21:53.103Z,7.18
2023-04-08T05:24:21.112Z,7.95
2023-04-08T05:26:53.460Z,7.05
2023-04-08T05:29:22.373Z,9.73
2023-04-08T05:31:50.549Z,7.03
2023-04-08T05:34:23.379Z,9.05
2023-04-08T05:36:53.793Z,8.20
2023-04-08T05:39:22.284Z,8.00
2023-04-08T05:41:50.706Z,7.40
2023-04-08T05:44:19.083Z,8.35
2023-04-08T05:46:47.688Z,7.63
2023-04-08T05:49:17.352Z,7.45
2023-04-08T05:51:45.512Z,8.20
2023-04-08T05:54:15.327Z,6.97
2023-04-08T05:56:46.663Z,7.57
2023-04-08T05:59:15.119Z,7.45
2023-04-08T06:01:43.366Z,7.82
2023-04-08T06:04:11.654Z,6.75
2023-04-08T06:06:43.323Z,8.57
2023-04-08T06:09:11.526Z,7.95
2023-04-08T06:11:42.089Z,8.93
2023-04-08T06:14:10.753Z,8.90
2023-04-08T06:16:39.170Z,8.85
2023-04-08T06:19:07.570Z,8.90
2023-04-08T06:21:35.935Z,9.48
2023-04-08T06:24:04.251Z,8.25
2023-04-08T06:26:33.532Z,15.30
2023-04-08T06:29:04.743Z,13.95
2023-04-08T06:31:33.288Z,14.55
2023-04-08T06:34:01.958Z,13.15
2023-04-08T06:36:30.500Z,9.45
2023-04-08T06:38:58.976Z,8.68
2023-04-08T06:41:27.743Z,8.68
2023-04-08T06:44:05.041Z,9.65
2023-04-08T06:46:33.244Z,11.65
2023-04-08T06:49:01.615Z,10.48
2023-04-08T06:51:30.139Z,9.55
2023-04-08T06:53:58.677Z,11.07
2023-04-08T06:56:27.325Z,10.80
2023-04-08T06:58:55.805Z,10.95
2023-04-08T07:01:25.767Z,9.45
2023-04-08T07:03:54.105Z,10.93
2023-04-08T07:06:22.613Z,10.40
2023-04-08T07:08:51.691Z,9.02
2023-04-08T07:11:21.253Z,8.80
2023-04-08T07:13:49.459Z,10.75
2023-04-08T07:16:17.641Z,10.02
2023-04-08T07:18:48.381Z,10.10
2023-04-08T07:21:17.047Z,8.85
2023-04-08T07:23:45.065Z,10.63
2023-04-08T07:26:13.919Z,10.25
2023-04-08T07:28:42.276Z,10.60
2023-04-08T07:31:14.837Z,9.90
2023-04-08T07:33:43.226Z,9.85
2023-04-08T07:36:14.387Z,9.93
2023-04-08T07:38:43.234Z,10.32
2023-04-08T07:41:11.325Z,9.48
2023-04-08T07:43:40.299Z,10.63
2023-04-08T07:46:09.336Z,12.45
2023-04-08T07:48:37.614Z,10.07
2023-04-08T07:51:09.147Z,9.82
2023-04-08T07:53:42.142Z,10.75
2023-04-08T07:56:14.951Z,10.00
2023-04-08T07:58:43.919Z,9.57
2023-04-08T08:01:20.097Z,9.90
2023-04-08T08:03:50.176Z,10.48
2023-04-08T08:06:18.999Z,10.30
2023-04-08T08:08:48.485Z,10.27
2023-04-08T08:11:16.830Z,10.90
2023-04-08T08:13:45.595Z,9.27
2023-04-08T08:16:14.028Z,10.30
2023-04-08T08:18:42.393Z,10.80
2023-04-08T08:21:10.901Z,10.98
2023-04-08T08:23:39.245Z,10.90
2023-04-08T08:26:11.166Z,11.38
2023-04-08T08:28:39.337Z,11.48
2023-04-08T08:31:08.511Z,12.77
2023-04-08T08:33:37.448Z,11.05
2023-04-08T08:36:07.453Z,11.45
2023-04-08T08:38:35.906Z,14.00
2023-04-08T08:41:04.705Z,12.40
2023-04-08T08:43:34.942Z,14.85
2023-04-08T08:46:04.231Z,14.50
2023-04-08T08:48:33.244Z,14.15
2023-04-08T08:51:02.096Z,15.57
2023-04-08T08:53:35.100Z,13.30
2023-04-08T08:56:17.983Z,12.50
2023-04-08T08:58:57.946Z,19.83
2023-04-08T09:01:38.490Z,12.77
2023-04-08T09:04:13.136Z,13.18
2023-04-08T09:06:41.598Z,13.43
2023-04-08T09:09:11.566Z,11.75
2023-04-08T09:11:41.769Z,13.82
2023-04-08T09:14:23.048Z,16.05
2023-04-08T09:16:52.121Z,13.98
2023-04-08T09:19:20.819Z,14.85
2023-04-08T09:22:07.026Z,13.65
2023-04-08T09:24:35.924Z,12.68
2023-04-08T09:27:04.555Z,13.60
2023-04-08T09:29:38.192Z,15.35
2023-04-08T09:32:07.840Z,13.82
2023-04-08T09:34:36.894Z,14.05
2023-04-08T09:37:05.227Z,13.57
2023-04-08T09:39:33.556Z,13.45
2023-04-08T09:42:03.991Z,14.02
2023-04-08T09:44:37.163Z,15.02
2023-04-08T09:47:11.417Z,13.32
2023-04-08T09:49:45.567Z,16.17
2023-04-08T09:52:19.904Z,22.25
2023-04-08T09:54:54.330Z,16.48
2023-04-08T09:57:30.523Z,17.73
2023-04-08T10:00:07.430Z,15.52
2023-04-08T10:02:58.143Z,15.68
2023-04-08T10:05:27.930Z,16.20
2023-04-08T10:07:57.655Z,15.18
2023-04-08T10:10:27.387Z,15.65
2023-04-08T10:12:56.390Z,15.73
2023-04-08T10:15:28.227Z,15.80
2023-04-08T10:17:58.674Z,16.60
2023-04-08T10:20:45.459Z,15.65
2023-04-08T10:23:14.917Z,15.88
2023-04-08T10:25:45.080Z,14.38
2023-04-08T10:28:26.506Z,13.98
2023-04-08T10:30:57.740Z,16.08
2023-04-08T10:33:33.918Z,14.43
2023-04-08T10:36:12.682Z,15.48
2023-04-08T10:38:42.903Z,15.88
2023-04-08T10:41:12.146Z,15.43
2023-04-08T10:43:40.497Z,14.50
2023-04-08T10:46:11.845Z,14.32
2023-04-08T10:48:40.213Z,14.18
2023-04-08T10:51:08.359Z,16.50
2023-04-08T10:53:39.258Z,20.88
2023-04-08T10:56:09.380Z,18.73
2023-04-08T10:58:37.851Z,17.55
2023-04-08T11:01:08.042Z,16.15
2023-04-08T11:03:38.148Z,18.00
2023-04-08T11:06:07.664Z,17.55
2023-04-08T11:08:36.859Z,15.13
2023-04-08T11:11:09.223Z,15.70
2023-04-08T11:13:38.738Z,16.25
2023-04-08T11:16:17.594Z,15.93
2023-04-08T11:18:48.263Z,15.13
2023-04-08T11:21:17.794Z,16.70
2023-04-08T11:23:46.501Z,20.02
2023-04-08T11:26:16.415Z,17.25
2023-04-08T11:28:45.775Z,18.35
2023-04-08T11:31:15.135Z,17.73
2023-04-08T11:33:51.745Z,17.13
2023-04-08T11:36:21.756Z,18.38
2023-04-08T11:38:50.212Z,16.40
2023-04-08T11:41:18.633Z,16.00
2023-04-08T11:43:54.778Z,16.75
2023-04-08T11:46:23.766Z,18.95
2023-04-08T11:49:07.952Z,18.58
2023-04-08T11:51:54.620Z,18.95
2023-04-08T11:54:30.019Z,18.52
2023-04-08T11:56:59.346Z,17.80
2023-04-08T11:59:29.553Z,17.17
2023-04-08T12:01:58.247Z,16.48
2023-04-08T12:04:27.876Z,17.15
2023-04-08T12:06:58.353Z,14.52
2023-04-08T12:09:27.731Z,15.68
2023-04-08T12:11:56.884Z,17.42
2023-04-08T12:14:28.416Z,15.50
2023-04-08T12:16:57.087Z,14.27
2023-04-08T12:19:25.223Z,14.73
2023-04-08T12:21:55.577Z,16.58
2023-04-08T12:24:23.710Z,18.17
2023-04-08T12:26:51.848Z,16.98
2023-04-08T12:29:20.204Z,17.20
2023-04-08T12:31:48.451Z,18.38
2023-04-08T12:34:17.222Z,18.00
2023-04-08T12:36:46.275Z,16.42
2023-04-08T12:39:16.088Z,17.05
2023-04-08T12:41:44.404Z,15.63
2023-04-08T12:44:12.817Z,18.73
2023-04-08T12:46:41.471Z,17.45
2023-04-08T12:49:10.222Z,18.23
2023-04-08T12:51:38.699Z,17.27
2023-04-08T12:54:06.718Z,18.20
2023-04-08T12:56:36.620Z,19.02
2023-04-08T12:59:05.178Z,20.20
2023-04-08T13:01:33.723Z,17.77
2023-04-08T13:04:02.454Z,20.15
2023-04-08T13:06:32.045Z,21.10
2023-04-08T13:09:00.782Z,19.38
2023-04-08T13:11:29.340Z,19.40
2023-04-08T13:13:58.871Z,20.83
2023-04-08T13:16:27.417Z,20.52
2023-04-08T13:18:55.751Z,19.70
2023-04-08T13:21:23.860Z,16.73
2023-04-08T13:23:52.394Z,19.55
2023-04-08T13:26:21.684Z,19.95
2023-04-08T13:28:57.234Z,22.55
2023-04-08T13:31:27.851Z,19.23
2023-04-08T13:33:58.129Z,17.80
2023-04-08T13:36:29.197Z,19.35
2023-04-08T13:38:57.761Z,17.75
2023-04-08T13:41:28.390Z,19.70
2023-04-08T13:43:58.254Z,17.45
2023-04-08T13:46:28.043Z,19.95
2023-04-08T13:48:56.229Z,17.83
2023-04-08T13:51:24.300Z,17.45
2023-04-08T13:53:52.612Z,18.52
2023-04-08T13:56:21.161Z,19.08
2023-04-08T13:58:56.785Z,16.40
2023-04-08T14:01:27.960Z,17.90
2023-04-08T14:03:57.298Z,16.52
2023-04-08T14:06:26.731Z,16.10
2023-04-08T14:08:56.624Z,15.13
2023-04-08T14:11:24.995Z,17.58
2023-04-08T14:13:53.149Z,16.83
2023-04-08T14:16:22.104Z,15.63
2023-04-08T14:18:53.057Z,18.65
2023-04-08T14:21:21.415Z,17.85
2023-04-08T14:23:49.842Z,15.10
2023-04-08T14:26:18.048Z,16.58
2023-04-08T14:28:46.357Z,15.60
2023-04-08T14:31:19.586Z,16.70
2023-04-08T14:33:48.527Z,18.63
2023-04-08T14:36:19.196Z,18.40
2023-04-08T14:38:47.402Z,17.73
2023-04-08T14:41:15.382Z,17.92
2023-04-08T14:43:43.582Z,16.65
2023-04-08T14:46:12.009Z,18.42
2023-04-08T14:48:40.431Z,15.85
2023-04-08T14:51:08.795Z,16.67
2023-04-08T14:53:38.624Z,18.63
2023-04-08T14:56:08.932Z,17.20
2023-04-08T14:58:37.140Z,14.93
2023-04-08T15:01:06.195Z,15.65
2023-04-08T15:03:34.898Z,16.10
2023-04-08T15:06:03.684Z,16.83
2023-04-08T15:08:31.904Z,16.15
2023-04-08T15:11:01.604Z,15.60
2023-04-08T15:13:29.769Z,15.40
2023-04-08T15:15:57.866Z,15.95
2023-04-08T15:18:26.047Z,13.95
2023-04-08T15:20:54.361Z,15.05
2023-04-08T15:23:23.481Z,14.75
2023-04-08T15:25:52.059Z,15.52
2023-04-08T15:28:21.764Z,16.80
2023-04-08T15:30:50.548Z,15.68
2023-04-08T15:33:19.370Z,15.80
2023-04-08T15:35:48.483Z,15.18
2023-04-08T15:38:17.699Z,15.32
2023-04-08T15:40:47.953Z,15.07
2023-04-08T15:43:16.762Z,15.05
2023-04-08T15:45:46.806Z,15.48
2023-04-08T15:48:15.507Z,15.18
2023-04-08T15:50:44.205Z,17.13
2023-04-08T15:53:12.530Z,15.93
2023-04-08T15:55:41.617Z,15.77
2023-04-08T15:58:09.938Z,15.18
2023-04-08T16:00:38.784Z,16.30
2023-04-08T16:03:12.229Z,17.90
2023-04-08T16:05:41.732Z,17.95
2023-04-08T16:08:10.439Z,16.23
2023-04-08T16:10:38.877Z,15.88
2023-04-08T16:13:07.910Z,17.92
2023-04-08T16:15:36.491Z,15.50
2023-04-08T16:18:06.623Z,15.43
2023-04-08T16:20:38.863Z,14.63
2023-04-08T16:23:08.470Z,15.65
2023-04-08T16:25:37.684Z,15.73
2023-04-08T16:28:07.055Z,14.93
2023-04-08T16:30:37.713Z,14.85
2023-04-08T16:33:08.968Z,14.63
2023-04-08T16:35:40.682Z,14.05
2023-04-08T16:38:20.415Z,14.25
2023-04-08T16:40:50.783Z,11.35
2023-04-08T16:43:21.761Z,14.65
2023-04-08T16:45:53.538Z,14.95
2023-04-08T16:48:23.457Z,15.65
2023-04-08T16:50:53.385Z,13.70
2023-04-08T16:53:23.936Z,15.77
2023-04-08T16:55:54.705Z,14.23
2023-04-08T16:58:23.456Z,13.70
2023-04-08T17:00:53.857Z,12.15
2023-04-08T17:03:23.085Z,14.68
2023-04-08T17:05:53.853Z,13.90
2023-04-08T17:08:26.283Z,15.70
2023-04-08T17:10:56.809Z,15.60
2023-04-08T17:13:26.375Z,13.77
2023-04-08T17:15:54.954Z,14.55
2023-04-08T17:18:23.775Z,13.57
2023-04-08T17:20:53.762Z,13.35
2023-04-08T17:23:22.432Z,15.40
2023-04-08T17:25:51.023Z,15.98
2023-04-08T17:28:20.140Z,14.50
2023-04-08T17:30:49.010Z,16.08
2023-04-08T17:33:17.451Z,15.45
2023-04-08T17:35:45.710Z,14.77
2023-04-08T17:38:15.783Z,17.13
2023-04-08T17:40:44.768Z,15.25
2023-04-08T17:43:13.772Z,15.75
2023-04-08T17:45:42.260Z,14.48
2023-04-08T17:48:11.253Z,14.38
2023-04-08T17:50:39.654Z,13.98
2023-04-08T17:53:08.053Z,12.98
2023-04-08T17:55:37.940Z,14.05
2023-04-08T17:58:06.720Z,12.93
2023-04-08T18:00:34.981Z,15.32
2023-04-08T18:03:03.513Z,14.35
2023-04-08T18:05:32.201Z,15.68
2023-04-08T18:08:00.769Z,18.80
2023-04-08T18:10:29.259Z,24.85
2023-04-08T18:13:11.323Z,18.50
2023-04-08T18:15:40.966Z,17.33
2023-04-08T18:18:09.426Z,21.25
2023-04-08T18:20:38.929Z,24.90
2023-04-08T18:23:08.735Z,21.10
2023-04-08T18:25:37.135Z,18.20
2023-04-08T18:28:07.171Z,18.75
2023-04-08T18:30:36.042Z,18.58
2023-04-08T18:33:05.002Z,19.73
2023-04-08T18:35:34.705Z,28.80
2023-04-08T18:38:04.190Z,28.05
2023-04-08T18:40:32.876Z,26.00
2023-04-08T18:43:04.682Z,18.50
2023-04-08T18:45:34.218Z,18.15
2023-04-08T18:48:02.758Z,18.70
2023-04-08T18:50:31.228Z,18.92
2023-04-08T18:52:59.463Z,21.40
2023-04-08T18:55:28.105Z,18.63
2023-04-08T18:57:56.382Z,15.68
2023-04-08T19:00:25.166Z,16.50
2023-04-08T19:02:55.076Z,16.92
2023-04-08T19:05:23.398Z,17.15
2023-04-08T19:07:53.300Z,19.00
2023-04-08T19:10:23.577Z,20.88
2023-04-08T19:12:51.984Z,22.30
2023-04-08T19:15:21.008Z,14.80
2023-04-08T19:17:50.297Z,13.27
2023-04-08T19:20:20.699Z,15.85
2023-04-08T19:22:50.137Z,15.05
2023-04-08T19:25:18.688Z,15.95
2023-04-08T19:27:46.925Z,17.20
2023-04-08T19:30:15.625Z,16.05
2023-04-08T19:32:44.248Z,16.05
2023-04-08T19:35:13.777Z,17.85
2023-04-08T19:37:43.487Z,17.70
2023-04-08T19:40:15.164Z,19.15
2023-04-08T19:42:43.502Z,19.13
2023-04-08T19:45:12.847Z,17.63
2023-04-08T19:47:42.391Z,19.02
2023-04-08T19:50:12.031Z,20.15
2023-04-08T19:52:40.486Z,17.95
2023-04-08T19:55:11.660Z,19.17
2023-04-08T19:57:40.689Z,18.40
2023-04-08T20:00:11.754Z,18.83
2023-04-08T20:02:44.795Z,18.50
2023-04-08T20:05:16.552Z,18.50
2023-04-08T20:07:45.277Z,18.42
2023-04-08T20:10:15.708Z,19.48
2023-04-08T20:12:43.961Z,20.10
2023-04-08T20:15:23.614Z,18.50
2023-04-08T20:17:53.145Z,18.45
2023-04-08T20:20:21.639Z,19.23
2023-04-08T20:22:49.901Z,17.80
2023-04-08T20:25:19.854Z,17.77
2023-04-08T20:27:48.360Z,23.05
2023-04-08T20:30:16.749Z,21.10
2023-04-08T20:32:45.835Z,22.05
2023-04-08T20:35:14.489Z,22.23
2023-04-08T20:37:43.224Z,24.35
2023-04-08T20:40:11.541Z,23.20
2023-04-08T20:42:41.720Z,18.98
2023-04-08T20:45:11.266Z,19.13
2023-04-08T20:47:41.492Z,20.52
2023-04-08T20:50:11.239Z,21.08
2023-04-08T20:52:39.555Z,21.95
2023-04-08T20:55:16.793Z,22.15
2023-04-08T20:57:49.662Z,23.52
2023-04-08T21:00:18.648Z,22.25
2023-04-08T21:02:48.227Z,22.80
2023-04-08T21:05:17.041Z,23.52
2023-04-08T21:07:45.780Z,25.00
2023-04-08T21:10:14.871Z,26.70
2023-04-08T21:12:43.571Z,26.15
2023-04-08T21:15:14.327Z,27.38
2023-04-08T21:17:42.971Z,26.65
2023-04-08T21:20:12.963Z,27.83
2023-04-08T21:22:41.056Z,24.98
2023-04-08T21:25:09.672Z,24.50
2023-04-08T21:27:38.307Z,28.30
2023-04-08T21:30:08.565Z,26.00
2023-04-08T21:32:38.945Z,27.90
2023-04-08T21:35:07.252Z,27.55
2023-04-08T21:37:35.687Z,28.73
2023-04-08T21:40:04.990Z,28.52
2023-04-08T21:42:33.676Z,27.42
2023-04-08T21:45:02.031Z,30.00
2023-04-08T21:47:30.442Z,28.75
2023-04-08T21:50:00.269Z,28.23
2023-04-08T21:52:28.451Z,29.92
2023-04-08T21:54:56.865Z,29.17
2023-04-08T21:57:25.385Z,30.08
2023-04-08T21:59:53.492Z,26.77
2023-04-08T22:02:22.557Z,27.90
2023-04-08T22:04:52.170Z,29.08
2023-04-08T22:07:21.998Z,27.52
2023-04-08T22:09:50.832Z,24.80
2023-04-08T22:12:18.956Z,25.45
2023-04-08T22:14:47.968Z,26.83
2023-04-08T22:17:16.366Z,28.38
2023-04-08T22:19:45.398Z,30.35
2023-04-08T22:22:13.911Z,30.65
2023-04-08T22:24:43.810Z,29.85
2023-04-08T22:27:12.395Z,28.98
2023-04-08T22:29:41.023Z,29.88
2023-04-08T22:32:09.824Z,30.48
2023-04-08T22:34:38.019Z,31.40
2023-04-08T22:37:06.822Z,29.90
2023-04-08T22:39:35.052Z,30.30
2023-04-08T22:42:05.825Z,28.80
2023-04-08T22:44:34.601Z,25.58
2023-04-08T22:47:03.116Z,27.65
2023-04-08T22:49:31.931Z,28.48
2023-04-08T22:52:00.932Z,28.02
2023-04-08T22:54:29.769Z,29.20
2023-04-08T22:56:58.201Z,29.35
2023-04-08T22:59:28.327Z,31.50
2023-04-08T23:01:57.257Z,28.75
2023-04-08T23:04:25.693Z,29.80
2023-04-08T23:06:54.169Z,30.45
2023-04-08T23:09:24.708Z,29.65
2023-04-08T23:11:53.691Z,30.33
2023-04-08T23:14:22.438Z,33.42
2023-04-08T23:16:52.229Z,32.40
2023-04-08T23:19:20.857Z,32.05
2023-04-08T23:21:49.314Z,31.05
2023-04-08T23:24:17.581Z,30.00
2023-04-08T23:26:46.073Z,29.75
2023-04-08T23:29:14.468Z,28.00
2023-04-08T23:31:42.771Z,30.63
2023-04-08T23:34:13.009Z,28.70
2023-04-08T23:36:41.210Z,28.55
2023-04-08T23:39:09.448Z,29.67
2023-04-08T23:41:37.671Z,28.13
2023-04-08T23:44:06.451Z,28.38
2023-04-08T23:46:34.906Z,30.52
2023-04-08T23:49:02.935Z,28.92
2023-04-08T23:51:32.686Z,30.77
2023-04-08T23:54:00.628Z,29.63
2023-04-08T23:56:28.969Z,30.08
2023-04-08T23:58:57.480Z,33.00
